Time;durP1;ratioP1;P1;durP2;ratioP2;P2;SDS_P1;SDS_P2;PMS_P1;PMS_P2;Temp;Humidity;BMP_temperature;BMP_pressure;BME280_temperature;BME280_humidity;BME280_pressure;Samples;Min_cycle;Max_cycle;Signal;HPM_P1;HPM_P2
2023/06/14 00:03:53;;;;;;;2.30;1.70;;;24.10;55.80;;;;;;222586;1260;22516;-51
2023/06/14 00:08:58;;;;;;;2.20;1.80;;;24.10;56.00;;;;;;222781;1267;25356;-50
2023/06/14 00:14:03;;;;;;;2.60;2.00;;;24.00;56.10;;;;;;222419;1267;24237;-51
2023/06/14 00:19:10;;;;;;;2.10;1.90;;;24.00;56.10;;;;;;222522;1260;22521;-53
2023/06/14 00:24:14;;;;;;;2.60;1.90;;;24.00;56.10;;;;;;222711;1252;25456;-51
2023/06/14 00:29:18;;;;;;;3.20;1.50;;;24.00;56.10;;;;;;222280;1267;22688;-51
2023/06/14 00:34:22;;;;;;;1.90;1.80;;;23.90;56.10;;;;;;222458;1260;22646;-50
2023/06/14 00:39:27;;;;;;;2.50;1.90;;;24.00;56.10;;;;;;222594;1267;22533;-52
2023/06/14 00:44:31;;;;;;;4.00;1.90;;;23.90;56.00;;;;;;222591;1260;22524;-49
2023/06/14 00:49:36;;;;;;;2.90;1.90;;;23.90;56.50;;;;;;222442;1260;22524;-51
2023/06/14 00:54:41;;;;;;;2.80;1.70;;;23.90;55.90;;;;;;222526;1261;22606;-57
2023/06/14 00:59:49;;;;;;;2.10;1.90;;;23.90;56.30;;;;;;222468;1267;22498;-51
2023/06/14 01:04:54;;;;;;;2.40;1.60;;;23.90;55.90;;;;;;222580;1253;25272;-52
2023/06/14 01:10:35;;;;;;;2.00;1.70;;;23.90;56.00;;;;;;222652;1244;24213;-51
2023/06/14 01:15:42;;;;;;;2.60;1.90;;;23.90;55.90;;;;;;230568;1247;22224;-50
2023/06/14 01:20:50;;;;;;;1.80;1.70;;;24.00;55.50;;;;;;224360;1261;23123;-50
2023/06/14 01:25:55;;;;;;;2.50;1.80;;;24.10;55.20;;;;;;227627;1262;22729;-47
2023/06/14 01:31:04;;;;;;;1.70;1.50;;;24.10;55.20;;;;;;222593;1268;23924;-48
2023/06/14 01:36:12;;;;;;;1.80;1.70;;;24.00;55.40;;;;;;222551;1263;22887;-48
2023/06/14 01:41:18;;;;;;;1.60;1.50;;;23.90;55.60;;;;;;222461;1254;24170;-50
2023/06/14 01:46:23;;;;;;;2.10;1.90;;;23.90;55.80;;;;;;222451;1264;23142;-51
2023/06/14 01:51:27;;;;;;;1.60;1.50;;;23.80;55.70;;;;;;222652;1265;22930;-54
2023/06/14 01:56:32;;;;;;;2.70;1.50;;;23.80;56.10;;;;;;222273;1256;22825;-49
2023/06/14 02:01:36;;;;;;;2.00;1.70;;;23.80;55.90;;;;;;222550;1268;22532;-48
2023/06/14 02:06:40;;;;;;;1.70;1.60;;;23.80;55.90;;;;;;222432;1268;25483;-51
2023/06/14 02:11:46;;;;;;;1.90;1.80;;;23.80;55.90;;;;;;222506;1267;321241;-51
2023/06/14 02:16:50;;;;;;;2.10;1.90;;;23.70;55.90;;;;;;222492;1256;24180;-51
2023/06/14 02:21:54;;;;;;;1.60;1.50;;;23.70;55.90;;;;;;222766;1260;22596;-51
2023/06/14 02:26:59;;;;;;;1.60;1.50;;;23.70;56.60;;;;;;222548;1267;25268;-51
2023/06/14 02:32:07;;;;;;;1.40;1.30;;;23.70;56.00;;;;;;222315;1266;24186;-53
2023/06/14 02:37:12;;;;;;;1.70;1.60;;;23.70;55.90;;;;;;222465;1262;22626;-52
2023/06/14 02:42:17;;;;;;;1.80;1.70;;;23.70;56.30;;;;;;222374;1255;22520;-49
2023/06/14 02:47:21;;;;;;;1.60;1.50;;;23.70;56.00;;;;;;222336;1267;26558;-52
2023/06/14 02:52:25;;;;;;;1.50;1.40;;;23.70;56.00;;;;;;222383;1252;22643;-52
2023/06/14 02:57:30;;;;;;;1.60;1.40;;;23.70;55.90;;;;;;222753;1261;23005;-52
2023/06/14 03:02:35;;;;;;;2.30;1.60;;;23.70;56.30;;;;;;222586;1256;22747;-54
2023/06/14 03:07:40;;;;;;;1.40;1.30;;;23.70;56.00;;;;;;222335;1254;23566;-49
2023/06/14 03:12:45;;;;;;;1.70;1.60;;;23.60;55.90;;;;;;230138;1268;22167;-50
2023/06/14 03:17:50;;;;;;;1.50;1.40;;;23.70;55.60;;;;;;230522;1267;22287;-51
2023/06/14 03:22:54;;;;;;;1.30;1.20;;;23.90;55.10;;;;;;230360;1267;22402;-51
2023/06/14 03:27:59;;;;;;;1.80;1.70;;;23.90;54.90;;;;;;228457;1265;22696;-51
2023/06/14 03:33:04;;;;;;;1.50;1.40;;;24.00;54.80;;;;;;222536;1261;25313;-52
2023/06/14 03:38:09;;;;;;;2.60;1.30;;;23.90;55.10;;;;;;222708;1264;24097;-55
2023/06/14 03:43:13;;;;;;;1.40;1.30;;;23.70;55.60;;;;;;222464;1267;23015;-52
2023/06/14 03:48:18;;;;;;;1.70;1.60;;;23.60;55.80;;;;;;222656;1264;22511;-52
2023/06/14 03:53:23;;;;;;;1.40;1.30;;;23.60;55.80;;;;;;222512;1252;22627;-56
2023/06/14 03:58:29;;;;;;;1.50;1.40;;;23.60;55.90;;;;;;222633;1260;26744;-51
2023/06/14 04:03:33;;;;;;;1.90;1.40;;;23.60;55.90;;;;;;222569;1262;22623;-52
2023/06/14 04:08:39;;;;;;;1.60;1.50;;;23.60;56.20;;;;;;222184;1262;22510;-53
2023/06/14 04:13:44;;;;;;;1.50;1.40;;;23.60;56.20;;;;;;222047;1266;22511;-55
2023/06/14 04:18:51;;;;;;;1.60;1.30;;;23.60;56.20;;;;;;222345;1265;25501;-53
2023/06/14 04:23:56;;;;;;;1.50;1.20;;;23.60;55.90;;;;;;222464;1267;22523;-51
2023/06/14 04:29:03;;;;;;;1.20;1.20;;;23.60;55.90;;;;;;222462;1258;25436;-49
2023/06/14 04:34:17;;;;;;;1.40;1.30;;;23.60;55.90;;;;;;222052;1262;22756;-52
2023/06/14 04:39:31;;;;;;;1.50;1.40;;;23.60;55.90;;;;;;222514;1265;22515;-54
2023/06/14 04:44:39;;;;;;;1.50;1.10;;;23.60;55.80;;;;;;222322;1255;22514;-52
2023/06/14 04:49:45;;;;;;;1.40;1.30;;;23.60;55.80;;;;;;222291;1262;22579;-51
2023/06/14 04:54:51;;;;;;;1.70;1.60;;;23.60;55.80;;;;;;222257;1265;22727;-53
2023/06/14 04:59:57;;;;;;;1.60;1.50;;;23.60;55.80;;;;;;222534;1265;22507;-53
2023/06/14 05:05:07;;;;;;;1.50;1.40;;;23.60;55.80;;;;;;222270;1262;22642;-57
2023/06/14 05:10:11;;;;;;;2.80;1.40;;;23.60;55.80;;;;;;222668;1258;27227;-52
2023/06/14 05:15:16;;;;;;;1.70;1.40;;;23.60;55.80;;;;;;222470;1262;22527;-52
2023/06/14 05:20:22;;;;;;;2.00;1.50;;;23.60;55.90;;;;;;221993;1254;22517;-54
2023/06/14 05:25:28;;;;;;;2.00;1.40;;;23.60;55.70;;;;;;222143;1265;22514;-51
2023/06/14 05:30:33;;;;;;;1.40;1.30;;;23.60;55.90;;;;;;222229;1250;23993;-55
2023/06/14 05:35:37;;;;;;;1.90;1.80;;;23.60;55.80;;;;;;222155;1265;22610;-49
2023/06/14 05:40:42;;;;;;;3.70;1.70;;;23.60;56.00;;;;;;222006;1268;25561;-49
2023/06/14 05:45:46;;;;;;;1.60;1.50;;;23.80;55.40;;;;;;222195;1262;24189;-51
2023/06/14 05:50:50;;;;;;;3.60;1.90;;;23.80;55.70;;;;;;222340;1253;22511;-55
2023/06/14 05:55:54;;;;;;;3.30;1.90;;;23.80;56.10;;;;;;222169;1248;24215;-55
2023/06/14 06:00:59;;;;;;;2.30;1.60;;;23.80;55.90;;;;;;222460;1262;22511;-45
2023/06/14 06:06:03;;;;;;;2.60;1.60;;;23.90;56.60;;;;;;222693;1267;24212;-47
2023/06/14 06:11:07;;;;;;;3.30;1.70;;;23.90;56.30;;;;;;222955;1261;25263;-44
2023/06/14 06:16:11;;;;;;;5.30;1.70;;;24.00;56.40;;;;;;222921;1260;24587;-47
2023/06/14 06:21:16;;;;;;;12.60;2.00;;;24.10;56.80;;;;;;222352;1261;22561;-43
2023/06/14 06:26:22;;;;;;;7.80;2.10;;;24.10;56.90;;;;;;222589;1260;22560;-44
2023/06/14 06:31:27;;;;;;;8.90;2.60;;;24.10;56.40;;;;;;222941;1261;25392;-45
2023/06/14 06:36:31;;;;;;;5.80;2.00;;;24.10;56.80;;;;;;222305;1264;22528;-48
2023/06/14 06:41:39;;;;;;;5.90;2.10;;;24.00;56.80;;;;;;222551;1261;22514;-44
2023/06/14 06:46:43;;;;;;;3.10;2.50;;;24.00;56.90;;;;;;222750;1253;25297;-48
2023/06/14 06:52:02;;;;;;;5.60;2.20;;;24.00;56.40;;;;;;222512;1254;24166;-45
2023/06/14 06:57:06;;;;;;;6.00;2.40;;;24.10;56.50;;;;;;222827;1254;24260;-45
2023/06/14 07:02:10;;;;;;;4.70;2.40;;;24.10;56.30;;;;;;222543;1267;22514;-45
2023/06/14 07:07:15;;;;;;;7.40;2.20;;;24.00;56.10;;;;;;222344;1265;22520;-45
2023/06/14 07:12:19;;;;;;;3.20;2.20;;;24.00;56.00;;;;;;222414;1258;22638;-44
2023/06/14 07:17:23;;;;;;;5.30;3.20;;;24.00;55.80;;;;;;222708;1267;22620;-47
2023/06/14 07:22:28;;;;;;;3.80;2.70;;;24.10;56.90;;;;;;222564;1267;24349;-48
2023/06/14 07:27:32;;;;;;;8.00;3.00;;;24.10;57.40;;;;;;222531;1244;25677;-48
2023/06/14 07:32:36;;;;;;;10.00;2.90;;;24.10;58.20;;;;;;222643;1263;22510;-49
2023/06/14 07:37:40;;;;;;;5.30;3.10;;;24.20;57.60;;;;;;222754;1267;22654;-45
2023/06/14 07:42:44;;;;;;;9.20;3.30;;;24.20;57.40;;;;;;222238;1254;22731;-48
2023/06/14 07:47:49;;;;;;;11.10;3.30;;;24.20;57.20;;;;;;222736;1267;25394;-49
2023/06/14 07:52:54;;;;;;;7.80;3.30;;;24.30;58.20;;;;;;222458;1256;22504;-59
2023/06/14 07:57:58;;;;;;;9.90;4.40;;;24.10;58.80;;;;;;222899;1267;22540;-49
2023/06/14 08:03:04;;;;;;;14.80;4.30;;;24.20;59.50;;;;;;222711;1247;25319;-49
2023/06/14 08:08:08;;;;;;;11.00;4.50;;;24.30;59.20;;;;;;222528;1260;25319;-50
2023/06/14 08:13:12;;;;;;;10.10;5.20;;;24.30;59.20;;;;;;222681;1262;24224;-51
2023/06/14 08:18:16;;;;;;;7.00;3.80;;;24.30;58.70;;;;;;222204;1252;24352;-50
2023/06/14 08:23:21;;;;;;;6.60;4.10;;;24.40;59.50;;;;;;222461;1262;24343;-50
2023/06/14 08:28:25;;;;;;;7.50;4.30;;;24.40;59.40;;;;;;222546;1262;22647;-46
2023/06/14 08:33:32;;;;;;;26.40;7.80;;;24.40;59.60;;;;;;222401;1268;22514;-47
2023/06/14 08:38:37;;;;;;;14.80;6.10;;;24.30;61.40;;;;;;222240;1262;23879;-46
2023/06/14 08:43:41;;;;;;;15.00;6.70;;;24.40;61.80;;;;;;222462;1266;22535;-54
2023/06/14 08:48:52;;;;;;;14.50;5.80;;;24.30;62.70;;;;;;222746;1261;22505;-55
2023/06/14 08:53:57;;;;;;;11.90;5.50;;;24.30;62.10;;;;;;222577;1262;24184;-55
2023/06/14 08:59:06;;;;;;;7.90;4.90;;;24.40;62.30;;;;;;222533;1261;22725;-53
2023/06/14 09:04:10;;;;;;;12.60;4.80;;;24.50;61.50;;;;;;222447;1255;22508;-52
2023/06/14 09:09:14;;;;;;;9.10;4.80;;;24.70;62.10;;;;;;222424;1253;24244;-52
2023/06/14 09:14:19;;;;;;;6.60;4.60;;;24.70;60.70;;;;;;222604;1255;24177;-59
2023/06/14 09:19:24;;;;;;;10.50;5.10;;;24.50;61.80;;;;;;222637;1252;25352;-57
2023/06/14 09:24:30;;;;;;;10.10;4.50;;;24.60;61.40;;;;;;222522;1265;22648;-55
2023/06/14 09:29:38;;;;;;;10.50;4.20;;;24.50;61.70;;;;;;222602;1265;24193;-54
2023/06/14 09:34:42;;;;;;;8.40;5.20;;;24.60;61.20;;;;;;222587;1254;22531;-50
2023/06/14 09:39:50;;;;;;;7.10;4.80;;;24.70;60.90;;;;;;222275;1258;22634;-50
2023/06/14 09:44:56;;;;;;;8.00;4.50;;;24.80;60.80;;;;;;222631;1259;24166;-50
2023/06/14 09:50:00;;;;;;;7.80;4.30;;;24.80;60.50;;;;;;222161;1267;24282;-55
2023/06/14 09:55:12;;;;;;;12.10;4.50;;;24.80;60.70;;;;;;222375;1260;24197;-48
2023/06/14 10:00:21;;;;;;;5.20;3.80;;;24.80;60.60;;;;;;222697;1265;22507;-50
2023/06/14 10:05:28;;;;;;;7.70;4.50;;;24.70;60.80;;;;;;222391;1264;22598;-48
2023/06/14 10:10:32;;;;;;;5.70;4.20;;;24.70;60.80;;;;;;222683;1263;22623;-53
2023/06/14 10:15:46;;;;;;;9.80;4.70;;;24.70;61.00;;;;;;222682;1252;25322;-51
2023/06/14 10:21:08;;;;;;;11.60;4.50;;;24.60;61.20;;;;;;222457;1254;25317;-53
2023/06/14 10:26:24;;;;;;;6.80;4.10;;;24.70;61.30;;;;;;222310;1267;22659;-52
2023/06/14 10:31:57;;;;;;;9.20;5.40;;;24.60;61.30;;;;;;222441;1259;22624;-48
2023/06/14 10:37:06;;;;;;;6.20;3.70;;;24.60;61.70;;;;;;222692;1264;24319;-49
2023/06/14 10:42:18;;;;;;;7.20;4.50;;;24.70;60.80;;;;;;222235;1265;22523;-53
2023/06/14 10:47:31;;;;;;;7.20;4.30;;;24.80;60.90;;;;;;222346;1247;25476;-58
2023/06/14 10:52:39;;;;;;;5.60;4.10;;;24.80;60.60;;;;;;222403;1257;24443;-52
2023/06/14 10:57:58;;;;;;;7.30;4.30;;;24.60;60.90;;;;;;222328;1259;24812;-48
2023/06/14 11:03:21;;;;;;;6.10;4.00;;;24.60;61.30;;;;;;222537;1265;24254;-56
2023/06/14 11:08:38;;;;;;;5.40;3.90;;;24.70;60.80;;;;;;222587;1265;22510;-53
2023/06/14 11:13:45;;;;;;;5.20;3.80;;;24.70;61.40;;;;;;222602;1265;22529;-50
2023/06/14 11:18:51;;;;;;;5.90;4.30;;;24.70;60.70;;;;;;222656;1244;25454;-52
2023/06/14 11:23:56;;;;;;;4.10;3.50;;;24.70;60.70;;;;;;222555;1263;22504;-55
2023/06/14 11:29:01;;;;;;;5.30;3.90;;;24.70;60.60;;;;;;222333;1257;23137;-53
2023/06/14 11:34:06;;;;;;;6.90;3.60;;;24.70;60.70;;;;;;222668;1265;26408;-50
2023/06/14 11:39:10;;;;;;;4.10;3.40;;;24.70;60.60;;;;;;222713;1264;22572;-51
2023/06/14 11:44:14;;;;;;;5.50;3.20;;;24.70;60.50;;;;;;222402;1253;25288;-47
2023/06/14 11:49:19;;;;;;;4.90;3.20;;;24.80;60.50;;;;;;222341;1267;24241;-48
2023/06/14 11:54:23;;;;;;;6.30;4.10;;;24.70;60.60;;;;;;222714;1265;25316;-50
2023/06/14 11:59:28;;;;;;;5.00;3.40;;;24.70;60.60;;;;;;222265;1266;22531;-48
2023/06/14 12:04:32;;;;;;;5.10;3.50;;;24.70;61.30;;;;;;222394;1254;22519;-52
2023/06/14 12:09:36;;;;;;;4.90;3.20;;;24.70;60.80;;;;;;222482;1264;22625;-51
2023/06/14 12:14:42;;;;;;;5.00;3.60;;;24.90;59.10;;;;;;222895;1253;23936;-50
2023/06/14 12:19:46;;;;;;;4.00;3.30;;;24.80;60.00;;;;;;222644;1267;25451;-49
2023/06/14 12:24:52;;;;;;;4.30;3.30;;;24.70;60.40;;;;;;222677;1262;25281;-48
2023/06/14 12:30:01;;;;;;;4.00;3.40;;;24.70;60.30;;;;;;222782;1264;22520;-48
2023/06/14 12:35:07;;;;;;;4.40;3.80;;;24.80;60.30;;;;;;222425;1267;24227;-53
2023/06/14 12:40:11;;;;;;;3.80;3.40;;;24.70;60.00;;;;;;222722;1265;22592;-49
2023/06/14 12:45:16;;;;;;;4.20;3.10;;;24.70;60.30;;;;;;222516;1261;25362;-51
2023/06/14 12:50:21;;;;;;;6.30;3.90;;;24.80;59.80;;;;;;222555;1260;23167;-52
2023/06/14 12:55:29;;;;;;;3.90;3.50;;;24.80;59.70;;;;;;222425;1256;22513;-54
2023/06/14 13:00:34;;;;;;;3.50;3.20;;;24.80;59.90;;;;;;222213;1265;25685;-48
2023/06/14 13:05:40;;;;;;;4.30;3.10;;;24.80;59.60;;;;;;222527;1265;26579;-49
2023/06/14 13:10:44;;;;;;;3.50;3.20;;;24.80;59.60;;;;;;222733;1263;22660;-51
2023/06/14 13:15:50;;;;;;;4.80;3.00;;;24.80;59.60;;;;;;222762;1253;23886;-53
2023/06/14 13:20:55;;;;;;;3.30;3.00;;;24.80;59.50;;;;;;223021;1266;22527;-53
2023/06/14 13:25:59;;;;;;;3.00;2.50;;;24.80;59.40;;;;;;222677;1263;22511;-55
2023/06/14 13:31:06;;;;;;;3.90;3.00;;;24.80;59.40;;;;;;222641;1257;25334;-61
2023/06/14 13:36:10;;;;;;;3.20;2.80;;;24.70;59.50;;;;;;222483;1262;22980;-63
2023/06/14 13:41:16;;;;;;;3.80;2.90;;;24.80;59.40;;;;;;222727;1267;22527;-59
2023/06/14 13:46:20;;;;;;;4.20;2.90;;;24.70;59.60;;;;;;222708;1262;24174;-56
2023/06/14 13:51:26;;;;;;;4.30;3.00;;;24.80;60.00;;;;;;222727;1262;22508;-61
2023/06/14 13:56:30;;;;;;;2.70;2.50;;;24.90;59.70;;;;;;222261;1266;22586;-61
2023/06/14 14:01:34;;;;;;;3.00;2.60;;;24.90;59.60;;;;;;222260;1267;22515;-62
2023/06/14 14:06:38;;;;;;;5.20;3.00;;;24.90;59.40;;;;;;222164;1266;22511;-47
2023/06/14 14:11:42;;;;;;;5.70;3.20;;;24.80;60.00;;;;;;223906;1256;395978;-44
2023/06/14 14:16:46;;;;;;;4.70;2.80;;;24.90;59.50;;;;;;222303;1264;22540;-47
2023/06/14 14:21:51;;;;;;;5.30;2.90;;;24.90;59.50;;;;;;222201;1265;22522;-46
2023/06/14 14:26:59;;;;;;;2.80;2.60;;;24.90;59.60;;;;;;222470;1256;22525;-50
2023/06/14 14:32:04;;;;;;;4.10;2.80;;;24.90;58.90;;;;;;222255;1260;24958;-46
2023/06/14 14:37:09;;;;;;;3.00;2.80;;;24.80;59.10;;;;;;222539;1265;22721;-48
2023/06/14 14:42:13;;;;;;;3.10;2.70;;;24.80;59.10;;;;;;222523;1262;24635;-46
2023/06/14 14:47:17;;;;;;;4.10;2.90;;;24.80;59.00;;;;;;222490;1267;22546;-46
2023/06/14 14:52:22;;;;;;;3.00;2.70;;;24.70;59.30;;;;;;222363;1265;22521;-47
2023/06/14 14:57:27;;;;;;;3.20;2.70;;;24.70;59.30;;;;;;222379;1257;22529;-47
2023/06/14 15:02:32;;;;;;;2.80;2.60;;;24.70;59.40;;;;;;222698;1265;24231;-47
2023/06/14 15:07:38;;;;;;;14.40;3.10;;;24.70;58.70;;;;;;222543;1265;22602;-46
2023/06/14 15:12:44;;;;;;;7.00;3.10;;;24.70;58.40;;;;;;222688;1267;23694;-57
2023/06/14 15:17:48;;;;;;;8.60;2.90;;;24.80;58.80;;;;;;222222;1254;22518;-55
2023/06/14 15:22:59;;;;;;;10.70;3.20;;;24.90;58.80;;;;;;225790;1265;22529;-57
2023/06/14 15:28:06;;;;;;;5.10;2.60;;;25.30;59.80;;;;;;222296;1260;22572;-58
2023/06/14 15:33:10;;;;;;;6.60;2.90;;;25.10;61.80;;;;;;222159;1265;24234;-52
2023/06/14 15:38:15;;;;;;;5.60;2.70;;;25.00;61.70;;;;;;222591;1269;22554;-48
2023/06/14 15:43:19;;;;;;;12.90;3.30;;;25.00;61.50;;;;;;222348;1267;22534;-48
2023/06/14 15:48:24;;;;;;;11.70;3.10;;;25.00;60.80;;;;;;222198;1266;22982;-42
2023/06/14 15:53:30;;;;;;;7.00;2.70;;;25.20;60.20;;;;;;222180;1268;26588;-44
2023/06/14 15:58:34;;;;;;;13.90;3.80;;;25.10;60.30;;;;;;222031;1268;22518;-49
2023/06/14 16:03:38;;;;;;;10.10;3.00;;;25.20;60.20;;;;;;222521;1268;22513;-46
2023/06/14 16:08:44;;;;;;;6.20;2.70;;;25.10;59.90;;;;;;222383;1268;22513;-50
2023/06/14 16:13:48;;;;;;;6.50;3.10;;;25.10;59.90;;;;;;222410;1265;23186;-46
2023/06/14 16:18:53;;;;;;;4.50;2.60;;;25.10;59.90;;;;;;222448;1268;22503;-46
2023/06/14 16:23:57;;;;;;;8.50;2.90;;;25.00;59.80;;;;;;222223;1261;25097;-45
2023/06/14 16:29:02;;;;;;;6.40;2.50;;;25.00;59.90;;;;;;222173;1257;22762;-54
2023/06/14 16:34:11;;;;;;;3.60;2.40;;;25.00;59.80;;;;;;225626;1265;22512;-58
2023/06/14 16:39:15;;;;;;;9.50;4.00;;;25.10;59.60;;;;;;222398;1265;22624;-60
2023/06/14 16:44:19;;;;;;;7.70;2.60;;;25.10;59.40;;;;;;222119;1267;25271;-59
2023/06/14 16:49:24;;;;;;;5.00;2.70;;;25.10;60.00;;;;;;222200;1265;24279;-60
2023/06/14 16:54:29;;;;;;;7.40;2.90;;;25.00;59.60;;;;;;221370;1272;25241;-59
2023/06/14 16:59:33;;;;;;;8.10;2.40;;;25.00;59.90;;;;;;221291;1271;25398;-61
2023/06/14 17:04:38;;;;;;;6.90;2.80;;;25.00;60.10;;;;;;221203;1266;23219;-59
2023/06/14 17:09:42;;;;;;;11.10;2.40;;;25.10;59.70;;;;;;221312;1264;25458;-58
2023/06/14 17:14:48;;;;;;;4.00;2.50;;;25.20;59.50;;;;;;222097;1262;22510;-60
2023/06/14 17:19:55;;;;;;;13.00;3.00;;;25.30;59.80;;;;;;222133;1269;25412;-56
2023/06/14 17:24:59;;;;;;;8.30;3.20;;;25.30;59.40;;;;;;222175;1263;24803;-60
2023/06/14 17:30:06;;;;;;;3.30;2.50;;;25.30;59.70;;;;;;222092;1264;22730;-59
2023/06/14 17:35:13;;;;;;;5.80;2.20;;;25.20;59.20;;;;;;222276;1261;22760;-57
2023/06/14 17:40:18;;;;;;;13.80;3.70;;;25.10;59.20;;;;;;222285;1269;22816;-54
2023/06/14 17:45:22;;;;;;;15.50;2.80;;;25.10;59.40;;;;;;222375;1262;22779;-55
2023/06/14 17:50:27;;;;;;;7.70;2.60;;;25.10;58.90;;;;;;222091;1251;22531;-55
2023/06/14 17:55:33;;;;;;;9.70;2.30;;;25.00;59.30;;;;;;222089;1267;23882;-53
2023/06/14 18:00:38;;;;;;;6.40;3.20;;;24.90;59.00;;;;;;222435;1267;24228;-50
2023/06/14 18:05:44;;;;;;;14.00;3.10;;;25.00;58.10;;;;;;222484;1256;22521;-52
2023/06/14 18:10:48;;;;;;;10.50;2.60;;;25.10;58.90;;;;;;222759;1264;25255;-59
2023/06/14 18:15:52;;;;;;;10.00;3.00;;;25.00;59.00;;;;;;222512;1255;25281;-54
2023/06/14 18:20:59;;;;;;;9.10;2.50;;;25.00;59.50;;;;;;222397;1267;22512;-53
2023/06/14 18:26:03;;;;;;;13.40;2.40;;;25.00;59.10;;;;;;222477;1267;24282;-53
2023/06/14 18:31:08;;;;;;;11.30;2.80;;;24.90;59.20;;;;;;222449;1261;22520;-56
2023/06/14 18:36:13;;;;;;;5.90;2.20;;;25.10;61.60;;;;;;222651;1254;24234;-57
2023/06/14 18:41:17;;;;;;;11.00;2.40;;;25.10;62.50;;;;;;222573;1267;24255;-54
2023/06/14 18:46:22;;;;;;;6.80;2.70;;;25.10;64.90;;;;;;222581;1267;26052;-52
2023/06/14 18:51:27;;;;;;;5.00;2.70;;;25.10;63.90;;;;;;222471;1266;22779;-52
2023/06/14 18:56:32;;;;;;;3.60;2.30;;;25.10;62.90;;;;;;222542;1269;25289;-54
2023/06/14 19:01:36;;;;;;;2.90;2.20;;;25.10;62.70;;;;;;222505;1268;22512;-54
2023/06/14 19:06:41;;;;;;;4.80;2.50;;;25.10;62.30;;;;;;222381;1261;22547;-53
2023/06/14 19:11:49;;;;;;;8.10;2.60;;;25.10;62.50;;;;;;222415;1263;22535;-54
2023/06/14 19:16:54;;;;;;;12.00;2.50;;;25.10;62.90;;;;;;222454;1255;22498;-53
2023/06/14 19:21:58;;;;;;;13.00;2.80;;;25.20;62.20;;;;;;222396;1267;24375;-54
2023/06/14 19:27:03;;;;;;;6.40;2.50;;;25.20;62.50;;;;;;222591;1264;24185;-53
2023/06/14 19:32:08;;;;;;;10.30;3.00;;;25.00;62.30;;;;;;222555;1264;25227;-52
2023/06/14 19:37:13;;;;;;;9.20;2.20;;;25.00;62.00;;;;;;222371;1261;22522;-54
2023/06/14 19:42:18;;;;;;;16.50;3.40;;;25.00;61.90;;;;;;222475;1265;26737;-55
2023/06/14 19:47:25;;;;;;;10.60;2.60;;;25.00;61.70;;;;;;222336;1263;25382;-52
2023/06/14 19:52:29;;;;;;;10.70;3.10;;;25.00;61.60;;;;;;222350;1267;24088;-52
2023/06/14 19:57:34;;;;;;;6.10;2.50;;;25.00;62.50;;;;;;222520;1267;22650;-51
2023/06/14 20:02:39;;;;;;;9.70;3.00;;;25.10;62.10;;;;;;222508;1262;24190;-51
2023/06/14 20:07:44;;;;;;;7.30;2.20;;;25.20;62.70;;;;;;222323;1257;22586;-52
2023/06/14 20:12:48;;;;;;;8.60;2.50;;;25.10;62.40;;;;;;222441;1244;25460;-53
2023/06/14 20:17:52;;;;;;;5.80;2.40;;;25.10;61.90;;;;;;222701;1264;24073;-53
2023/06/14 20:22:57;;;;;;;8.00;2.50;;;25.00;61.70;;;;;;222209;1268;22530;-53
2023/06/14 20:28:01;;;;;;;12.20;2.80;;;25.00;61.80;;;;;;222560;1263;25265;-52
2023/06/14 20:33:06;;;;;;;8.80;2.90;;;25.00;63.40;;;;;;222435;1254;24183;-38
2023/06/14 20:38:10;;;;;;;10.00;2.90;;;25.00;63.10;;;;;;222421;1248;23940;-40
2023/06/14 20:43:15;;;;;;;11.60;2.60;;;25.10;62.60;;;;;;222581;1263;25340;-37
2023/06/14 20:48:19;;;;;;;7.60;2.40;;;25.00;62.60;;;;;;222715;1265;22717;-38
2023/06/14 20:53:24;;;;;;;13.20;3.30;;;25.00;65.70;;;;;;222536;1260;22646;-37
2023/06/14 20:58:29;;;;;;;7.40;2.80;;;24.90;64.00;;;;;;222628;1261;23566;-39
2023/06/14 21:03:35;;;;;;;9.90;3.00;;;25.00;64.70;;;;;;222634;1248;25394;-39
2023/06/14 21:08:39;;;;;;;8.90;3.20;;;24.90;64.20;;;;;;222540;1264;22526;-40
2023/06/14 21:13:44;;;;;;;8.60;3.70;;;25.00;64.20;;;;;;222462;1265;24336;-39
2023/06/14 21:18:48;;;;;;;8.60;3.90;;;25.00;63.80;;;;;;222346;1254;25437;-40
2023/06/14 21:23:52;;;;;;;3.80;2.80;;;25.00;64.00;;;;;;222210;1269;22574;-39
2023/06/14 21:28:57;;;;;;;6.20;3.00;;;25.00;63.80;;;;;;222369;1254;22521;-39
2023/06/14 21:34:01;;;;;;;4.00;2.70;;;25.00;63.60;;;;;;222624;1261;26482;-38
2023/06/14 21:39:05;;;;;;;5.40;2.50;;;24.90;63.50;;;;;;222326;1252;24243;-38
2023/06/14 21:44:09;;;;;;;5.00;2.80;;;25.00;63.50;;;;;;222294;1254;24181;-40
2023/06/14 21:49:14;;;;;;;6.50;2.20;;;25.00;63.20;;;;;;222500;1267;22587;-39
2023/06/14 21:54:18;;;;;;;4.70;2.40;;;25.00;63.50;;;;;;222499;1257;24119;-39
2023/06/14 21:59:22;;;;;;;4.40;2.40;;;24.80;63.40;;;;;;222392;1267;22514;-38
2023/06/14 22:04:27;;;;;;;6.00;2.50;;;24.90;63.40;;;;;;222645;1254;24186;-39
2023/06/14 22:09:33;;;;;;;18.20;2.80;;;24.80;63.20;;;;;;222331;1261;25483;-38
2023/06/14 22:14:37;;;;;;;11.00;2.70;;;24.80;63.20;;;;;;222423;1258;22640;-40
2023/06/14 22:19:41;;;;;;;5.10;2.70;;;24.70;63.60;;;;;;221386;1273;22643;-40
2023/06/14 22:24:45;;;;;;;3.60;2.50;;;24.70;63.30;;;;;;221279;1273;22532;-40
2023/06/14 22:29:56;;;;;;;9.00;2.50;;;24.70;63.10;;;;;;221242;1270;24645;-38
2023/06/14 22:35:03;;;;;;;4.90;2.60;;;24.70;63.10;;;;;;221270;1269;24234;-40
2023/06/14 22:40:09;;;;;;;5.30;2.60;;;24.70;63.00;;;;;;222400;1266;22528;-38
2023/06/14 22:45:22;;;;;;;5.10;2.20;;;24.70;63.20;;;;;;222019;1254;24215;-38
2023/06/14 22:50:30;;;;;;;2.80;2.30;;;24.70;62.70;;;;;;222245;1268;24231;-39
2023/06/14 22:55:34;;;;;;;5.30;2.70;;;24.60;62.60;;;;;;222811;1255;22520;-40
2023/06/14 23:00:39;;;;;;;3.50;2.50;;;24.60;62.70;;;;;;222355;1252;25327;-36
2023/06/14 23:05:46;;;;;;;2.80;2.10;;;24.60;62.50;;;;;;222349;1266;25317;-36
2023/06/14 23:10:51;;;;;;;2.90;2.60;;;24.60;62.40;;;;;;222620;1264;22534;-39
2023/06/14 23:15:57;;;;;;;3.20;2.00;;;24.60;62.20;;;;;;222612;1265;22789;-39
2023/06/14 23:21:01;;;;;;;4.80;2.30;;;24.60;62.20;;;;;;222392;1246;24186;-38
2023/06/14 23:26:08;;;;;;;3.30;2.20;;;24.50;62.00;;;;;;222507;1255;22615;-39
2023/06/14 23:31:13;;;;;;;4.10;2.20;;;24.50;62.00;;;;;;222779;1265;24218;-38
2023/06/14 23:36:18;;;;;;;3.10;2.20;;;24.50;61.90;;;;;;222713;1257;24386;-38
2023/06/14 23:41:30;;;;;;;2.20;2.00;;;24.50;62.10;;;;;;222318;1257;25274;-41
2023/06/14 23:46:34;;;;;;;2.70;1.90;;;24.50;62.00;;;;;;222520;1255;25278;-39
2023/06/14 23:51:41;;;;;;;2.90;1.90;;;24.40;61.90;;;;;;222387;1255;24169;-41
2023/06/14 23:56:47;;;;;;;3.40;1.90;;;24.50;61.70;;;;;;222593;1265;24257;-38
